createdAt,value
2022-08-31T00:00:37.024Z,2.20
2022-08-31T00:03:25.521Z,2.58
2022-08-31T00:06:00.202Z,2.88
2022-08-31T00:08:29.701Z,2.65
2022-08-31T00:10:57.412Z,2.30
2022-08-31T00:13:27.790Z,2.45
2022-08-31T00:15:57.718Z,2.40
2022-08-31T00:18:25.376Z,2.70
2022-08-31T00:20:53.051Z,2.35
2022-08-31T00:23:21.616Z,2.55
2022-08-31T00:25:50.416Z,3.20
2022-08-31T00:28:19.400Z,2.67
2022-08-31T00:30:49.771Z,2.40
2022-08-31T00:33:17.619Z,2.38
2022-08-31T00:35:45.812Z,2.42
2022-08-31T00:38:14.927Z,2.35
2022-08-31T00:40:47.551Z,2.67
2022-08-31T00:43:34.604Z,2.40
2022-08-31T00:46:02.280Z,2.45
2022-08-31T00:48:30.972Z,2.30
2022-08-31T00:50:59.143Z,2.58
2022-08-31T00:53:26.870Z,2.42
2022-08-31T00:55:54.513Z,2.60
2022-08-31T00:58:22.736Z,2.22
2022-08-31T01:00:51.892Z,2.33
2022-08-31T01:03:22.898Z,2.15
2022-08-31T01:05:51.954Z,2.50
2022-08-31T01:08:21.583Z,2.45
2022-08-31T01:11:00.301Z,2.40
2022-08-31T01:13:30.867Z,2.33
2022-08-31T01:16:09.845Z,2.80
2022-08-31T01:18:39.013Z,2.30
2022-08-31T01:21:22.881Z,2.60
2022-08-31T01:23:54.180Z,2.33
2022-08-31T01:26:28.045Z,2.42
2022-08-31T01:29:02.655Z,2.40
2022-08-31T01:31:46.877Z,2.35
2022-08-31T01:34:14.918Z,2.60
2022-08-31T01:36:44.899Z,2.38
2022-08-31T01:39:12.589Z,2.53
2022-08-31T01:41:43.988Z,2.45
2022-08-31T01:44:17.893Z,2.70
2022-08-31T01:46:46.941Z,2.42
2022-08-31T01:49:16.547Z,2.50
2022-08-31T01:51:46.648Z,2.90
2022-08-31T01:54:14.480Z,2.60
2022-08-31T01:56:47.212Z,2.75
2022-08-31T01:59:22.467Z,2.53
2022-08-31T02:02:08.783Z,2.60
2022-08-31T02:04:37.720Z,2.65
2022-08-31T02:07:05.209Z,2.63
2022-08-31T02:09:34.818Z,2.70
2022-08-31T02:12:02.588Z,2.63
2022-08-31T02:14:30.019Z,2.60
2022-08-31T02:19:25.745Z,2.80
2022-08-31T02:21:56.604Z,2.80
2022-08-31T02:24:24.200Z,2.78
2022-08-31T02:26:54.002Z,2.58
2022-08-31T02:29:22.190Z,2.50
2022-08-31T02:31:49.796Z,2.47
2022-08-31T02:34:17.381Z,2.80
2022-08-31T02:36:45.569Z,2.53
2022-08-31T02:39:15.000Z,2.60
2022-08-31T02:41:42.605Z,2.80
2022-08-31T02:44:11.282Z,2.70
2022-08-31T02:46:38.769Z,2.70
2022-08-31T02:49:35.556Z,2.83
2022-08-31T02:52:03.940Z,2.97
2022-08-31T02:54:31.791Z,2.58
2022-08-31T02:56:59.608Z,2.50
2022-08-31T02:59:27.609Z,2.42
2022-08-31T03:01:55.681Z,2.50
2022-08-31T03:04:23.677Z,2.33
2022-08-31T03:06:51.474Z,2.50
2022-08-31T03:09:19.196Z,2.35
2022-08-31T03:11:46.737Z,2.30
2022-08-31T03:14:14.445Z,2.40
2022-08-31T03:16:42.300Z,2.22
2022-08-31T03:19:10.044Z,2.38
2022-08-31T03:21:37.637Z,2.22
2022-08-31T03:24:06.663Z,1.85
2022-08-31T03:26:34.205Z,2.17
2022-08-31T03:29:03.141Z,2.20
2022-08-31T03:31:48.996Z,2.28
2022-08-31T03:34:16.693Z,2.00
2022-08-31T03:36:44.139Z,2.10
2022-08-31T03:39:11.686Z,2.00
2022-08-31T03:41:39.321Z,2.00
2022-08-31T03:44:07.482Z,2.00
2022-08-31T03:46:35.851Z,2.03
2022-08-31T03:49:04.234Z,1.88
2022-08-31T03:51:33.833Z,1.70
2022-08-31T03:54:02.173Z,2.00
2022-08-31T03:56:29.759Z,1.90
2022-08-31T03:58:57.182Z,1.73
2022-08-31T04:01:43.514Z,1.83
2022-08-31T04:07:42.094Z,1.90
2022-08-31T04:10:29.400Z,1.70
2022-08-31T04:13:16.394Z,1.45
2022-08-31T04:16:09.565Z,1.80
2022-08-31T04:18:56.087Z,2.03
2022-08-31T04:21:28.407Z,1.58
2022-08-31T04:23:56.180Z,2.10
2022-08-31T04:26:27.448Z,2.05
2022-08-31T04:28:55.879Z,1.95
2022-08-31T04:31:26.023Z,2.10
2022-08-31T04:33:56.412Z,1.63
2022-08-31T04:36:27.287Z,2.00
2022-08-31T04:38:59.598Z,2.45
2022-08-31T04:41:32.068Z,2.25
2022-08-31T04:44:01.447Z,1.95
2022-08-31T04:46:32.972Z,2.15
2022-08-31T04:49:00.509Z,2.03
2022-08-31T04:51:35.452Z,2.20
2022-08-31T04:54:07.126Z,2.30
2022-08-31T04:56:40.090Z,2.03
2022-08-31T04:59:12.867Z,2.10
2022-08-31T05:01:52.080Z,2.08
2022-08-31T05:04:38.271Z,2.08
2022-08-31T05:07:05.793Z,1.88
2022-08-31T05:09:34.236Z,1.80
2022-08-31T05:12:02.890Z,1.90
2022-08-31T05:14:31.576Z,1.80
2022-08-31T05:17:15.011Z,1.90
2022-08-31T05:19:44.929Z,2.08
2022-08-31T05:22:16.545Z,1.88
2022-08-31T05:24:48.079Z,1.90
2022-08-31T05:27:16.374Z,1.60
2022-08-31T05:29:45.094Z,1.75
2022-08-31T05:32:41.394Z,1.60
2022-08-31T05:35:12.460Z,1.55
2022-08-31T05:37:42.440Z,1.77
2022-08-31T05:40:11.440Z,1.60
2022-08-31T05:42:39.146Z,1.70
2022-08-31T05:45:07.554Z,1.60
2022-08-31T05:47:36.307Z,1.48
2022-08-31T05:50:08.330Z,1.40
2022-08-31T05:52:38.581Z,1.80
2022-08-31T05:55:06.430Z,1.45
2022-08-31T05:57:34.038Z,1.40
2022-08-31T06:00:03.113Z,1.80
2022-08-31T06:02:41.007Z,1.80
2022-08-31T06:05:10.339Z,1.52
2022-08-31T06:07:38.434Z,1.73
2022-08-31T06:10:10.411Z,1.75
2022-08-31T06:12:39.630Z,1.52
2022-08-31T06:15:07.617Z,1.35
2022-08-31T06:17:36.623Z,1.30
2022-08-31T06:20:05.947Z,1.60
2022-08-31T06:22:37.048Z,1.73
2022-08-31T06:25:10.297Z,1.70
2022-08-31T06:27:38.817Z,1.38
2022-08-31T06:30:09.101Z,1.25
2022-08-31T06:32:37.690Z,1.80
2022-08-31T06:35:06.607Z,1.40
2022-08-31T06:38:10.267Z,1.20
2022-08-31T06:41:22.901Z,1.27
2022-08-31T06:44:26.242Z,1.30
2022-08-31T06:47:07.310Z,1.13
2022-08-31T06:52:06.416Z,1.10
2022-08-31T06:54:35.443Z,1.40
2022-08-31T06:57:21.547Z,1.33
2022-08-31T07:00:08.321Z,1.27
2022-08-31T07:02:45.144Z,1.30
2022-08-31T07:05:24.753Z,1.20
2022-08-31T07:07:53.507Z,1.20
2022-08-31T07:10:21.062Z,1.33
2022-08-31T07:12:48.748Z,1.10
2022-08-31T07:15:16.307Z,1.38
2022-08-31T07:17:43.895Z,1.33
2022-08-31T07:20:12.578Z,1.27
2022-08-31T07:22:41.059Z,1.30
2022-08-31T07:25:27.124Z,1.20
2022-08-31T07:27:55.472Z,1.23
2022-08-31T07:30:23.597Z,1.20
2022-08-31T07:32:52.073Z,1.50
2022-08-31T07:35:24.448Z,1.20
2022-08-31T07:38:23.786Z,1.25
2022-08-31T07:41:12.868Z,1.35
2022-08-31T07:43:41.838Z,1.42
2022-08-31T07:46:10.186Z,1.23
2022-08-31T07:48:38.069Z,1.50
2022-08-31T07:51:26.056Z,1.20
2022-08-31T07:57:11.662Z,1.58
2022-08-31T07:59:41.173Z,1.60
2022-08-31T08:02:11.113Z,1.48
2022-08-31T08:04:44.271Z,1.70
2022-08-31T08:07:55.071Z,1.40
2022-08-31T08:10:51.969Z,1.30
2022-08-31T08:13:30.012Z,1.70
2022-08-31T08:16:08.750Z,1.80
2022-08-31T08:18:54.882Z,1.50
2022-08-31T08:21:28.286Z,1.55
2022-08-31T08:23:56.214Z,1.40
2022-08-31T08:26:53.501Z,1.65
2022-08-31T08:29:38.064Z,2.00
2022-08-31T08:32:08.759Z,1.60
2022-08-31T08:34:43.466Z,1.55
2022-08-31T08:37:13.450Z,1.70
2022-08-31T08:39:43.048Z,1.88
2022-08-31T08:42:21.006Z,1.85
2022-08-31T08:44:48.815Z,2.00
2022-08-31T08:47:25.944Z,2.22
2022-08-31T08:50:06.454Z,1.90
2022-08-31T08:52:46.971Z,1.70
2022-08-31T08:55:22.177Z,2.05
2022-08-31T08:57:52.131Z,1.80
2022-08-31T09:00:28.476Z,3.05
2022-08-31T09:03:03.371Z,2.15
2022-08-31T09:06:07.092Z,2.70
2022-08-31T09:09:22.323Z,2.40
2022-08-31T09:12:14.063Z,2.08
2022-08-31T09:15:20.515Z,2.30
2022-08-31T09:18:12.042Z,2.28
2022-08-31T09:20:41.850Z,2.33
2022-08-31T09:23:10.939Z,2.23
2022-08-31T09:25:52.395Z,2.22
2022-08-31T09:31:41.294Z,2.35
2022-08-31T09:34:33.179Z,2.40
2022-08-31T09:37:24.857Z,2.67
2022-08-31T09:39:54.362Z,2.80
2022-08-31T09:42:31.367Z,2.70
2022-08-31T09:45:29.954Z,2.75
2022-08-31T09:48:01.184Z,2.60
2022-08-31T09:50:36.893Z,2.80
2022-08-31T09:53:44.323Z,2.90
2022-08-31T09:56:22.645Z,2.80
2022-08-31T09:59:01.647Z,3.10
2022-08-31T10:01:38.656Z,2.90
2022-08-31T10:04:47.896Z,3.05
2022-08-31T10:07:53.511Z,3.58
2022-08-31T10:10:34.878Z,3.40
2022-08-31T10:13:12.461Z,3.10
2022-08-31T10:15:52.749Z,3.63
2022-08-31T10:18:56.067Z,3.35
2022-08-31T10:21:52.256Z,3.35
2022-08-31T10:24:39.161Z,3.10
2022-08-31T10:27:18.174Z,3.00
2022-08-31T10:29:58.097Z,3.53
2022-08-31T10:32:51.410Z,2.58
2022-08-31T10:35:31.440Z,3.05
2022-08-31T10:38:26.172Z,2.58
2022-08-31T10:41:21.585Z,3.30
2022-08-31T10:44:00.196Z,2.63
2022-08-31T10:46:31.113Z,2.72
2022-08-31T10:49:01.858Z,2.95
2022-08-31T10:52:12.514Z,2.38
2022-08-31T10:55:07.869Z,2.80
2022-08-31T10:57:38.234Z,2.70
2022-08-31T11:00:35.630Z,3.20
2022-08-31T11:03:17.143Z,2.90
2022-08-31T11:09:25.382Z,2.78
2022-08-31T11:12:07.172Z,3.13
2022-08-31T11:15:12.985Z,3.17
2022-08-31T11:17:55.509Z,2.95
2022-08-31T11:20:59.699Z,3.22
2022-08-31T11:23:35.801Z,3.53
2022-08-31T11:26:45.601Z,3.33
2022-08-31T11:29:41.473Z,3.80
2022-08-31T11:32:17.860Z,3.40
2022-08-31T11:34:51.436Z,3.00
2022-08-31T11:37:53.085Z,3.25
2022-08-31T11:40:43.818Z,3.30
2022-08-31T11:43:34.826Z,2.72
2022-08-31T11:46:27.311Z,2.53
2022-08-31T11:48:55.145Z,2.65
2022-08-31T11:51:41.660Z,2.80
2022-08-31T11:54:26.909Z,3.28
2022-08-31T11:56:56.963Z,2.80
2022-08-31T11:59:39.693Z,2.80
2022-08-31T12:02:19.601Z,2.55
2022-08-31T12:04:53.420Z,2.90
2022-08-31T12:07:41.043Z,2.30
2022-08-31T12:10:27.216Z,2.40
2022-08-31T12:13:32.089Z,2.83
2022-08-31T12:16:44.096Z,2.60
2022-08-31T12:20:00.448Z,2.10
2022-08-31T12:23:31.208Z,2.70
2022-08-31T12:26:44.411Z,2.42
2022-08-31T12:29:36.339Z,2.30
2022-08-31T12:32:12.369Z,2.80
2022-08-31T12:34:49.369Z,2.28
2022-08-31T12:37:31.991Z,2.15
2022-08-31T12:40:19.442Z,2.47
2022-08-31T12:43:14.287Z,2.55
2022-08-31T12:46:15.950Z,2.38
2022-08-31T12:49:21.869Z,2.97
2022-08-31T12:52:31.739Z,2.97
2022-08-31T12:55:26.831Z,2.15
2022-08-31T12:57:57.209Z,1.95
2022-08-31T13:00:32.365Z,2.30
2022-08-31T13:03:18.377Z,2.35
2022-08-31T13:06:08.090Z,2.10
2022-08-31T13:08:41.924Z,2.50
2022-08-31T13:11:31.099Z,2.38
2022-08-31T13:14:18.771Z,1.95
2022-08-31T13:16:53.462Z,2.22
2022-08-31T13:19:32.833Z,2.55
2022-08-31T13:22:09.777Z,2.05
2022-08-31T13:24:53.692Z,2.40
2022-08-31T13:27:25.612Z,2.55
2022-08-31T13:29:59.147Z,2.20
2022-08-31T13:32:34.514Z,2.30
2022-08-31T13:35:11.059Z,2.45
2022-08-31T13:37:52.433Z,2.20
2022-08-31T13:40:25.414Z,2.30
2022-08-31T13:42:57.349Z,2.10
2022-08-31T13:45:27.598Z,2.20
2022-08-31T13:48:07.001Z,2.45
2022-08-31T13:50:53.687Z,2.45
2022-08-31T13:53:45.875Z,2.13
2022-08-31T13:56:47.993Z,2.28
2022-08-31T13:59:24.307Z,2.00
2022-08-31T14:02:15.437Z,2.05
2022-08-31T14:04:45.706Z,2.22
2022-08-31T14:07:21.353Z,2.00
2022-08-31T14:10:19.507Z,2.25
2022-08-31T14:12:56.925Z,2.05
2022-08-31T14:15:37.011Z,2.15
2022-08-31T14:18:42.957Z,1.90
2022-08-31T14:21:20.474Z,2.10
2022-08-31T14:24:10.134Z,2.10
2022-08-31T14:26:44.846Z,2.30
2022-08-31T14:29:16.065Z,2.00
2022-08-31T14:31:43.398Z,2.15
2022-08-31T14:34:30.154Z,2.05
2022-08-31T14:37:07.461Z,1.98
2022-08-31T14:39:41.750Z,2.10
2022-08-31T14:42:21.801Z,1.80
2022-08-31T14:45:02.947Z,2.10
2022-08-31T14:47:43.085Z,2.05
2022-08-31T14:50:16.263Z,1.75
2022-08-31T14:52:55.017Z,1.70
2022-08-31T14:55:25.130Z,1.70
2022-08-31T14:58:01.862Z,1.90
2022-08-31T15:00:49.805Z,1.83
2022-08-31T15:03:24.272Z,1.50
2022-08-31T15:05:51.753Z,2.03
2022-08-31T15:08:20.210Z,1.88
2022-08-31T15:10:51.926Z,1.92
2022-08-31T15:13:19.448Z,2.05
2022-08-31T15:15:47.846Z,1.83
2022-08-31T15:18:15.532Z,1.90
2022-08-31T15:20:43.031Z,1.95
2022-08-31T15:23:10.431Z,1.67
2022-08-31T15:25:39.222Z,1.55
2022-08-31T15:28:08.550Z,1.83
2022-08-31T15:30:39.649Z,1.80
2022-08-31T15:33:08.329Z,1.88
2022-08-31T15:35:41.731Z,1.80
2022-08-31T15:38:11.694Z,1.88
2022-08-31T15:40:39.845Z,1.60
2022-08-31T15:43:09.878Z,1.58
2022-08-31T15:45:37.501Z,2.00
2022-08-31T15:48:23.871Z,1.80
2022-08-31T15:51:00.183Z,1.75
2022-08-31T15:53:30.321Z,1.70
2022-08-31T15:56:06.723Z,1.80
2022-08-31T15:58:38.904Z,1.80
2022-08-31T16:01:16.427Z,1.92
2022-08-31T16:03:58.312Z,1.70
2022-08-31T16:06:30.132Z,1.77
2022-08-31T16:08:57.980Z,1.48
2022-08-31T16:11:31.178Z,1.80
2022-08-31T16:13:59.771Z,1.77
2022-08-31T16:16:34.774Z,1.80
2022-08-31T16:19:04.415Z,2.38
2022-08-31T16:21:37.070Z,1.90
2022-08-31T16:24:09.608Z,2.08
2022-08-31T16:26:42.123Z,1.40
2022-08-31T16:29:14.789Z,2.00
2022-08-31T16:31:45.169Z,1.60
2022-08-31T16:34:12.925Z,2.08
2022-08-31T16:36:42.151Z,1.85
2022-08-31T16:39:10.490Z,1.70
2022-08-31T16:41:37.931Z,2.00
2022-08-31T16:44:21.607Z,1.77
2022-08-31T16:46:49.234Z,1.67
2022-08-31T16:49:36.649Z,1.88
2022-08-31T16:52:21.933Z,1.70
2022-08-31T16:54:51.479Z,1.77
2022-08-31T16:57:27.123Z,2.00
2022-08-31T16:59:57.319Z,1.75
2022-08-31T17:02:27.364Z,1.50
2022-08-31T17:04:56.446Z,1.60
2022-08-31T17:07:24.798Z,1.52
2022-08-31T17:10:01.811Z,1.30
2022-08-31T17:12:29.295Z,2.00
2022-08-31T17:14:58.320Z,1.67
2022-08-31T17:17:26.784Z,1.40
2022-08-31T17:19:58.555Z,1.80
2022-08-31T17:22:32.432Z,1.70
2022-08-31T17:25:05.128Z,1.35
2022-08-31T17:27:34.961Z,1.65
2022-08-31T17:30:07.184Z,1.80
2022-08-31T17:32:44.554Z,1.85
2022-08-31T17:35:18.314Z,1.65
2022-08-31T17:37:48.497Z,1.95
2022-08-31T17:40:16.697Z,1.60
2022-08-31T17:42:44.474Z,1.60
2022-08-31T17:45:12.306Z,1.70
2022-08-31T17:47:40.276Z,1.73
2022-08-31T17:50:08.282Z,1.77
2022-08-31T17:52:35.853Z,1.48
2022-08-31T17:55:04.072Z,1.60
2022-08-31T17:57:31.540Z,1.50
2022-08-31T17:59:59.132Z,1.50
2022-08-31T18:02:34.813Z,1.60
2022-08-31T18:05:11.519Z,1.48
2022-08-31T18:07:40.966Z,1.67
2022-08-31T18:10:10.258Z,1.63
2022-08-31T18:12:41.202Z,1.73
2022-08-31T18:15:12.416Z,1.88
2022-08-31T18:17:40.511Z,1.58
2022-08-31T18:20:09.518Z,1.73
2022-08-31T18:22:37.073Z,1.92
2022-08-31T18:25:05.305Z,2.00
2022-08-31T18:27:32.818Z,1.42
2022-08-31T18:30:01.086Z,1.50
2022-08-31T18:32:34.075Z,1.60
2022-08-31T18:35:05.859Z,1.40
2022-08-31T18:37:33.576Z,1.45
2022-08-31T18:40:19.969Z,2.50
2022-08-31T18:43:05.953Z,1.65
2022-08-31T18:45:37.859Z,1.60
2022-08-31T18:48:24.361Z,1.75
2022-08-31T18:50:52.302Z,1.48
2022-08-31T18:53:28.717Z,1.65
2022-08-31T18:56:07.727Z,1.50
2022-08-31T18:58:36.623Z,1.70
2022-08-31T19:01:10.337Z,1.58
2022-08-31T19:03:38.956Z,1.70
2022-08-31T19:06:08.062Z,1.67
2022-08-31T19:08:35.578Z,1.50
2022-08-31T19:11:07.890Z,1.55
2022-08-31T19:13:35.345Z,1.40
2022-08-31T19:16:10.891Z,1.70
2022-08-31T19:18:44.283Z,1.40
2022-08-31T19:21:22.023Z,1.40
2022-08-31T19:23:51.471Z,1.50
2022-08-31T19:26:30.203Z,1.42
2022-08-31T19:28:59.515Z,1.75
2022-08-31T19:31:28.219Z,1.52
2022-08-31T19:33:57.080Z,1.40
2022-08-31T19:36:27.613Z,1.60
2022-08-31T19:38:56.178Z,1.50
2022-08-31T19:41:27.249Z,1.50
2022-08-31T19:44:05.658Z,1.60
2022-08-31T19:46:38.966Z,1.58
2022-08-31T19:49:10.953Z,1.40
2022-08-31T19:51:42.860Z,1.73
2022-08-31T19:54:14.511Z,2.00
2022-08-31T19:56:42.850Z,1.52
2022-08-31T19:59:18.167Z,1.42
2022-08-31T20:01:53.032Z,1.60
2022-08-31T20:04:26.941Z,1.65
2022-08-31T20:06:57.810Z,1.30
2022-08-31T20:09:26.138Z,1.40
2022-08-31T20:11:56.819Z,1.35
2022-08-31T20:14:24.540Z,1.47
2022-08-31T20:16:52.453Z,1.35
2022-08-31T20:19:24.903Z,1.60
2022-08-31T20:22:03.488Z,1.73
2022-08-31T20:24:30.979Z,1.65
2022-08-31T20:27:01.721Z,1.50
2022-08-31T20:29:38.725Z,1.48
2022-08-31T20:32:07.876Z,1.40
2022-08-31T20:34:37.408Z,1.30
2022-08-31T20:37:28.280Z,1.17
2022-08-31T20:39:56.795Z,1.53
2022-08-31T20:42:25.655Z,0.98
2022-08-31T20:44:53.160Z,1.10
2022-08-31T20:47:41.528Z,1.13
2022-08-31T20:50:11.433Z,1.40
2022-08-31T20:52:40.029Z,1.13
2022-08-31T20:55:08.216Z,1.13
2022-08-31T20:57:40.622Z,1.20
2022-08-31T21:00:10.544Z,1.20
2022-08-31T21:02:39.816Z,1.58
2022-08-31T21:05:37.019Z,1.30
2022-08-31T21:07:59.941Z,0.93
2022-08-31T21:10:37.702Z,1.17
2022-08-31T21:13:12.695Z,1.35
2022-08-31T21:15:45.361Z,1.50
2022-08-31T21:18:17.401Z,1.35
2022-08-31T21:20:47.358Z,1.33
2022-08-31T21:23:15.165Z,1.00
2022-08-31T21:25:46.257Z,1.33
2022-08-31T21:28:17.400Z,1.33
2022-08-31T21:30:48.943Z,1.27
2022-08-31T21:35:43.884Z,1.35
2022-08-31T21:38:13.091Z,1.20
2022-08-31T21:40:49.122Z,1.30
2022-08-31T21:43:16.831Z,1.30
2022-08-31T21:45:44.478Z,1.08
2022-08-31T21:48:11.922Z,1.17
2022-08-31T21:50:39.542Z,1.30
2022-08-31T21:53:06.971Z,1.30
2022-08-31T21:55:38.509Z,1.17
2022-08-31T22:00:34.469Z,1.10
2022-08-31T22:03:02.458Z,1.10
2022-08-31T22:05:31.669Z,1.17
2022-08-31T22:07:59.195Z,1.08
2022-08-31T22:10:29.004Z,1.30
2022-08-31T22:12:56.488Z,1.15
2022-08-31T22:15:25.982Z,0.85
2022-08-31T22:18:17.931Z,1.00
2022-08-31T22:20:42.373Z,1.15
2022-08-31T22:23:11.175Z,1.15
2022-08-31T22:25:38.709Z,1.20
2022-08-31T22:28:07.391Z,0.98
2022-08-31T22:30:36.249Z,1.27
2022-08-31T22:33:04.583Z,0.98
2022-08-31T22:35:38.821Z,1.30
2022-08-31T22:38:07.197Z,1.50
2022-08-31T22:40:39.415Z,1.10
2022-08-31T22:43:07.157Z,1.08
2022-08-31T22:45:34.887Z,1.20
2022-08-31T22:48:02.725Z,1.10
2022-08-31T22:50:31.443Z,1.25
2022-08-31T22:52:59.231Z,1.52
2022-08-31T22:55:26.691Z,1.40
2022-08-31T22:57:54.352Z,1.38
2022-08-31T23:00:24.614Z,1.50
2022-08-31T23:02:52.734Z,1.27
2022-08-31T23:05:20.647Z,1.70
2022-08-31T23:07:48.754Z,1.40
2022-08-31T23:10:19.542Z,1.50
2022-08-31T23:12:55.856Z,1.67
2022-08-31T23:15:23.384Z,1.30
2022-08-31T23:17:51.629Z,1.67
2022-08-31T23:20:24.213Z,1.48
2022-08-31T23:22:55.043Z,1.58
2022-08-31T23:25:24.195Z,1.70
2022-08-31T23:27:52.379Z,1.30
2022-08-31T23:30:22.536Z,1.75
2022-08-31T23:32:53.357Z,1.35
2022-08-31T23:35:24.519Z,1.30
2022-08-31T23:37:53.615Z,1.23
2022-08-31T23:40:21.306Z,1.25
2022-08-31T23:42:49.635Z,1.75
2022-08-31T23:45:17.228Z,1.88
2022-08-31T23:47:44.641Z,1.55
2022-08-31T23:50:14.001Z,1.60
2022-08-31T23:52:43.766Z,1.45
2022-08-31T23:55:11.928Z,1.40
2022-08-31T23:57:39.868Z,1.50
